Weather History for KHSP - December, 2012

Change the Weather History Date:

Friday, December 14, 2012

  Actual Average Record
Temperature  
Mean Temperature 38 °F -  
Max Temperature 46 °F 36 °F 60 °F (2001)
Min Temperature 30 °F 23 °F 1 °F (2010)
Degree Days  
Heating Degree Days 27    
Moisture  
Dew Point 20 °F    
Average Humidity 50    
Maximum Humidity 70    
Minimum Humidity 23    
Precipitation  
Precipitation 0.00 in - - ()
Sea Level Pressure  
Sea Level Pressure 30.26 in    
Wind  
Wind Speed 11 mph (West)    
Max Wind Speed 16 mph    
Max Gust Speed 21 mph    
Visibility 10 miles    
Events      
Averages and records for this station are not official NWS values.
T = Trace of Precipitation, MM = Missing Value Source: NWS Daily Summary

Daily Weather History Graph

Daily Weather History Graph

Search for Another Location

Airport or City:

Trip Planner

Search our weather history database for the weather conditions in past years. The results will help you decide how hot, cold, wet, or windy it might be!

Date:

Astronomy

Dec. 14, 2012 Rise Set
Actual Time 7:27 AM EST 5:00 PM EST
Civil Twilight 6:58 AM EST 5:30 PM EST
Nautical Twilight 6:25 AM EST 6:03 PM EST
Astronomical Twilight 5:53 AM EST 6:35 PM EST
Moon 8:31 AM EST (12/14) 6:50 PM EST (12/14)
Length of Visible Light 10h 32m
Length of Day
9h 33m
Waxing Crescent, 3% of the Moon is Illuminated
Dec 14
Waxing Crescent
Dec 20
First Quarter
Dec 28
Full
Jan 4
Last Quarter
Jan 11
New

Hourly Weather History & Observations

Time (EST) Temp. Windchill Dew Point Humidity Pressure Visibility Wind Dir Wind Speed Gust Speed Precip Events Conditions
12:15 AM 30.2 °F 20.8 °F 15.8 °F 55% 30.28 in 10.0 mi WSW 11.5 mph - N/A   Clear
12:35 AM 30.2 °F 20.8 °F 14.0 °F 51% 30.27 in 10.0 mi WSW 11.5 mph - N/A   Clear
1:15 AM 32.0 °F 22.5 °F 15.8 °F 51% 30.27 in 10.0 mi WSW 12.7 mph - N/A   Clear
1:35 AM 32.0 °F 22.1 °F 15.8 °F 51% 30.27 in 10.0 mi WSW 13.8 mph - N/A   Clear
1:55 AM 33.8 °F 24.8 °F 15.8 °F 48% 30.27 in 10.0 mi West 12.7 mph - N/A   Clear
2:15 AM 33.8 °F 24.8 °F 15.8 °F 48% 30.27 in 10.0 mi West 12.7 mph - N/A   Clear
2:35 AM 33.8 °F 24.8 °F 17.6 °F 52% 30.27 in 10.0 mi West 12.7 mph - N/A   Clear
2:55 AM 33.8 °F 25.3 °F 17.6 °F 52% 30.27 in 10.0 mi West 11.5 mph - N/A   Clear
3:15 AM 32.0 °F 23.0 °F 17.6 °F 55% 30.27 in 10.0 mi West 11.5 mph - N/A   Clear
3:35 AM 33.8 °F 24.8 °F 17.6 °F 52% 30.26 in 10.0 mi West 12.7 mph - N/A   Clear
3:55 AM 33.8 °F 24.3 °F 17.6 °F 52% 30.26 in 10.0 mi West 13.8 mph - N/A   Clear
4:15 AM 33.8 °F 23.9 °F 19.4 °F 56% 30.26 in 10.0 mi West 15.0 mph - N/A   Clear
4:35 AM 33.8 °F 24.8 °F 19.4 °F 56% 30.26 in 10.0 mi West 12.7 mph 19.6 mph N/A   Clear
4:55 AM 33.8 °F 24.3 °F 19.4 °F 56% 30.26 in 10.0 mi West 13.8 mph - N/A   Clear
5:15 AM 32.0 °F 23.0 °F 19.4 °F 60% 30.26 in 10.0 mi West 11.5 mph - N/A   Clear
5:35 AM 32.0 °F 22.5 °F 19.4 °F 60% 30.26 in 10.0 mi West 12.7 mph - N/A   Clear
5:55 AM 33.8 °F 24.3 °F 19.4 °F 56% 30.27 in 10.0 mi West 13.8 mph - N/A   Clear
6:15 AM 32.0 °F 21.6 °F 19.4 °F 60% 30.27 in 10.0 mi West 15.0 mph - N/A   Clear
6:35 AM 33.8 °F 23.5 °F 21.2 °F 60% 30.29 in 10.0 mi West 16.1 mph - N/A   Clear
6:55 AM 33.8 °F 23.9 °F 21.2 °F 60% 30.29 in 10.0 mi West 15.0 mph - N/A   Clear
7:15 AM 33.8 °F 24.3 °F 23.0 °F 65% 30.28 in 10.0 mi West 13.8 mph 20.7 mph N/A   Clear
7:35 AM 32.0 °F 22.5 °F 23.0 °F 69% 30.29 in 10.0 mi West 12.7 mph - N/A   Clear
7:55 AM 33.8 °F 23.9 °F 24.8 °F 70% 30.28 in 10.0 mi West 15.0 mph - N/A   Clear
8:15 AM 33.8 °F 25.3 °F 24.8 °F 70% 30.28 in 10.0 mi West 11.5 mph - N/A   Clear
8:35 AM 33.8 °F 25.3 °F 24.8 °F 70% 30.28 in 10.0 mi West 11.5 mph - N/A   Clear
8:55 AM 35.6 °F 27.1 °F 24.8 °F 65% 30.28 in 10.0 mi West 12.7 mph - N/A   Clear
9:15 AM 35.6 °F 27.5 °F 24.8 °F 65% 30.29 in 10.0 mi West 11.5 mph - N/A   Clear
9:35 AM 35.6 °F 27.1 °F 24.8 °F 65% 30.30 in 10.0 mi West 12.7 mph - N/A   Clear
9:55 AM 37.4 °F 28.9 °F 24.8 °F 60% 30.30 in 10.0 mi West 13.8 mph - N/A   Clear
10:15 AM 37.4 °F 28.9 °F 24.8 °F 60% 30.31 in 10.0 mi West 13.8 mph - N/A   Clear
10:35 AM 37.4 °F 28.9 °F 23.0 °F 56% 30.30 in 10.0 mi West 13.8 mph - N/A   Clear
10:55 AM 37.4 °F 28.5 °F 21.2 °F 52% 30.30 in 10.0 mi West 15.0 mph - N/A   Clear
11:15 AM 39.2 °F 31.2 °F 21.2 °F 49% 30.30 in 10.0 mi West 13.8 mph - N/A   Clear
11:35 AM 39.2 °F 31.2 °F 21.2 °F 49% 30.30 in 10.0 mi West 13.8 mph - N/A   Clear
11:55 AM 39.2 °F 31.6 °F 21.2 °F 49% 30.29 in 10.0 mi West 12.7 mph - N/A   Clear
12:15 PM 41.0 °F 34.7 °F 19.4 °F 42% 30.28 in 10.0 mi West 10.4 mph - N/A   Clear
12:35 PM 42.8 °F 38.6 °F 19.4 °F 39% 30.27 in 10.0 mi West 6.9 mph - N/A   Clear
12:55 PM 42.8 °F 38.6 °F 19.4 °F 39% 30.27 in 10.0 mi West 6.9 mph - N/A   Clear
1:15 PM 42.8 °F 38.6 °F 21.2 °F 42% 30.26 in 10.0 mi West 6.9 mph - N/A   Clear
1:35 PM 42.8 °F 37.5 °F 21.2 °F 42% 30.26 in 10.0 mi West 9.2 mph - N/A   Clear
1:55 PM 44.6 °F 40.7 °F 21.2 °F 39% 30.25 in 10.0 mi West 6.9 mph - N/A   Clear
2:15 PM 44.6 °F 40.2 °F 21.2 °F 39% 30.25 in 10.0 mi West 8.1 mph - N/A   Clear
2:35 PM 44.6 °F 40.2 °F 21.2 °F 39% 30.25 in 10.0 mi West 8.1 mph - N/A   Clear
2:55 PM 44.6 °F 41.4 °F 21.2 °F 39% 30.24 in 10.0 mi West 5.8 mph - N/A   Clear
3:15 PM 46.4 °F 42.9 °F 21.2 °F 37% 30.24 in 10.0 mi West 6.9 mph - N/A   Clear
3:35 PM 46.4 °F 42.9 °F 21.2 °F 37% 30.24 in 10.0 mi West 6.9 mph - N/A   Clear
3:36 PM 46.4 °F 42.9 °F 21.2 °F 37% 30.24 in 10.0 mi West 6.9 mph - N/A   Clear
3:55 PM 44.6 °F 40.2 °F 21.2 °F 39% 30.24 in 10.0 mi WSW 8.1 mph - N/A   Clear
4:15 PM 44.6 °F 42.2 °F 19.4 °F 37% 30.24 in 10.0 mi WSW 4.6 mph - N/A   Clear
4:35 PM 42.8 °F 38.0 °F 19.4 °F 39% 30.24 in 10.0 mi West 8.1 mph - N/A   Clear
5:15 PM 39.2 °F 32.5 °F 19.4 °F 45% 30.24 in 10.0 mi West 10.4 mph - N/A   Clear
5:35 PM 39.2 °F 32.0 °F 21.2 °F 49% 30.25 in 10.0 mi West 11.5 mph - N/A   Clear
5:55 PM 39.2 °F 32.5 °F 21.2 °F 49% 30.24 in 10.0 mi West 10.4 mph - N/A   Clear
6:15 PM 39.2 °F 33.0 °F 21.2 °F 49% 30.24 in 10.0 mi West 9.2 mph - N/A   Clear
6:35 PM 39.2 °F 33.6 °F 21.2 °F 49% 30.24 in 10.0 mi West 8.1 mph - N/A   Clear
6:55 PM 39.2 °F 33.6 °F 21.2 °F 49% 30.24 in 10.0 mi West 8.1 mph - N/A   Clear
7:15 PM 37.4 °F - 21.2 °F 52% 30.24 in 10.0 mi Calm Calm - N/A   Clear
7:35 PM 39.2 °F 33.0 °F 21.2 °F 49% 30.25 in 10.0 mi West 9.2 mph - N/A   Clear
7:55 PM 37.4 °F 34.9 °F 21.2 °F 52% 30.26 in 10.0 mi South 3.5 mph - N/A   Clear
8:15 PM 39.2 °F 32.0 °F 21.2 °F 49% 30.26 in 10.0 mi West 11.5 mph - N/A   Clear
8:55 PM 41.0 °F 35.8 °F 21.2 °F 45% 30.26 in 10.0 mi West 8.1 mph - N/A   Clear
9:35 PM 37.4 °F 32.8 °F 21.2 °F 52% 30.26 in 10.0 mi West 5.8 mph - N/A   Clear
9:55 PM 39.2 °F 35.9 °F 21.2 °F 49% 30.27 in 10.0 mi WSW 4.6 mph - N/A   Clear
10:15 PM 39.2 °F 37.0 °F 21.2 °F 49% 30.25 in 10.0 mi WSW 3.5 mph - N/A   Clear
10:35 PM 39.2 °F - 21.2 °F 49% 30.25 in 10.0 mi Calm Calm - N/A   Clear
10:55 PM 39.2 °F - 21.2 °F 49% 30.24 in 10.0 mi Calm Calm - N/A   Clear
11:15 PM 42.8 °F - 12.2 °F 29% 30.25 in 10.0 mi Calm Calm - N/A   Clear
11:35 PM 41.0 °F - 14.0 °F 33% 30.24 in 10.0 mi Calm Calm - N/A   Clear
11:55 PM 44.6 °F - 8.6 °F 23% 30.24 in 10.0 mi Calm Calm - N/A   Clear